sensor_id;sensor_type;location;lat;lon;timestamp;temperature;humidity
10083;DHT22;5080;48.528;8.078;2022-09-24T00:00:49;13.60;99.90
10083;DHT22;5080;48.528;8.078;2022-09-24T00:03:18;13.60;99.90
10083;DHT22;5080;48.528;8.078;2022-09-24T00:05:46;13.60;99.90
10083;DHT22;5080;48.528;8.078;2022-09-24T00:08:15;13.60;99.90
10083;DHT22;5080;48.528;8.078;2022-09-24T00:10:44;13.70;99.90
10083;DHT22;5080;48.528;8.078;2022-09-24T00:13:13;13.60;99.90
10083;DHT22;5080;48.528;8.078;2022-09-24T00:15:42;13.60;99.90
10083;DHT22;5080;48.528;8.078;2022-09-24T00:18:12;13.70;99.90
10083;DHT22;5080;48.528;8.078;2022-09-24T00:20:39;13.60;99.90
10083;DHT22;5080;48.528;8.078;2022-09-24T00:23:07;13.60;99.90
10083;DHT22;5080;48.528;8.078;2022-09-24T00:25:40;13.70;99.90
10083;DHT22;5080;48.528;8.078;2022-09-24T00:28:25;13.70;99.90
10083;DHT22;5080;48.528;8.078;2022-09-24T00:30:52;13.60;99.90
10083;DHT22;5080;48.528;8.078;2022-09-24T00:33:19;13.60;99.90
10083;DHT22;5080;48.528;8.078;2022-09-24T00:35:46;13.60;99.90
10083;DHT22;5080;48.528;8.078;2022-09-24T00:38:13;13.60;99.90
10083;DHT22;5080;48.528;8.078;2022-09-24T00:40:41;13.70;99.90
10083;DHT22;5080;48.528;8.078;2022-09-24T00:43:25;13.60;99.90
10083;DHT22;5080;48.528;8.078;2022-09-24T00:45:53;13.60;99.90
10083;DHT22;5080;48.528;8.078;2022-09-24T00:48:21;13.60;99.90
10083;DHT22;5080;48.528;8.078;2022-09-24T00:50:47;13.60;99.90
10083;DHT22;5080;48.528;8.078;2022-09-24T00:53:17;13.60;99.90
10083;DHT22;5080;48.528;8.078;2022-09-24T00:55:48;13.50;99.90
10083;DHT22;5080;48.528;8.078;2022-09-24T00:58:19;13.50;99.90
10083;DHT22;5080;48.528;8.078;2022-09-24T01:00:48;13.40;99.90
10083;DHT22;5080;48.528;8.078;2022-09-24T01:03:18;13.40;99.90
10083;DHT22;5080;48.528;8.078;2022-09-24T01:05:46;13.40;99.90
10083;DHT22;5080;48.528;8.078;2022-09-24T01:08:15;13.40;99.90
10083;DHT22;5080;48.528;8.078;2022-09-24T01:10:54;13.30;99.90
10083;DHT22;5080;48.528;8.078;2022-09-24T01:16:27;13.30;99.90
10083;DHT22;5080;48.528;8.078;2022-09-24T01:19:06;13.20;99.90
10083;DHT22;5080;48.528;8.078;2022-09-24T01:21:38;13.30;99.90
10083;DHT22;5080;48.528;8.078;2022-09-24T01:24:34;13.30;99.90
10083;DHT22;5080;48.528;8.078;2022-09-24T01:27:11;13.20;99.90
10083;DHT22;5080;48.528;8.078;2022-09-24T01:29:49;13.30;99.90
10083;DHT22;5080;48.528;8.078;2022-09-24T01:32:24;13.20;99.90
10083;DHT22;5080;48.528;8.078;2022-09-24T01:34:57;13.20;99.90
10083;DHT22;5080;48.528;8.078;2022-09-24T01:37:26;13.20;99.90
10083;DHT22;5080;48.528;8.078;2022-09-24T01:39:56;13.20;99.90
10083;DHT22;5080;48.528;8.078;2022-09-24T01:42:26;13.30;99.90
10083;DHT22;5080;48.528;8.078;2022-09-24T01:44:56;13.40;99.90
10083;DHT22;5080;48.528;8.078;2022-09-24T01:47:28;13.40;99.90
10083;DHT22;5080;48.528;8.078;2022-09-24T01:49:55;13.50;99.90
10083;DHT22;5080;48.528;8.078;2022-09-24T01:52:28;13.50;99.90
10083;DHT22;5080;48.528;8.078;2022-09-24T01:54:58;13.60;99.90
10083;DHT22;5080;48.528;8.078;2022-09-24T01:57:29;13.60;99.90
10083;DHT22;5080;48.528;8.078;2022-09-24T02:00:02;13.60;99.90
10083;DHT22;5080;48.528;8.078;2022-09-24T02:02:33;13.60;99.90
10083;DHT22;5080;48.528;8.078;2022-09-24T02:05:06;13.50;99.90
10083;DHT22;5080;48.528;8.078;2022-09-24T02:07:36;13.50;99.90
10083;DHT22;5080;48.528;8.078;2022-09-24T02:10:05;13.60;99.90
10083;DHT22;5080;48.528;8.078;2022-09-24T02:12:37;13.60;99.90
10083;DHT22;5080;48.528;8.078;2022-09-24T02:15:10;13.60;99.90
10083;DHT22;5080;48.528;8.078;2022-09-24T02:17:41;13.60;99.90
10083;DHT22;5080;48.528;8.078;2022-09-24T02:20:12;13.70;99.90
10083;DHT22;5080;48.528;8.078;2022-09-24T02:22:40;13.70;99.90
10083;DHT22;5080;48.528;8.078;2022-09-24T02:25:13;13.60;99.90
10083;DHT22;5080;48.528;8.078;2022-09-24T02:27:41;13.60;99.90
10083;DHT22;5080;48.528;8.078;2022-09-24T02:30:10;13.50;99.90
10083;DHT22;5080;48.528;8.078;2022-09-24T02:32:39;13.50;99.90
10083;DHT22;5080;48.528;8.078;2022-09-24T02:35:09;13.40;99.90
10083;DHT22;5080;48.528;8.078;2022-09-24T02:37:37;13.40;99.90
10083;DHT22;5080;48.528;8.078;2022-09-24T02:40:07;13.40;99.90
10083;DHT22;5080;48.528;8.078;2022-09-24T02:42:35;13.40;99.90
10083;DHT22;5080;48.528;8.078;2022-09-24T02:45:03;13.40;99.90
10083;DHT22;5080;48.528;8.078;2022-09-24T02:47:31;13.30;99.90
10083;DHT22;5080;48.528;8.078;2022-09-24T02:49:58;13.40;99.90
10083;DHT22;5080;48.528;8.078;2022-09-24T02:52:26;13.30;99.90
10083;DHT22;5080;48.528;8.078;2022-09-24T02:54:52;13.20;99.90
10083;DHT22;5080;48.528;8.078;2022-09-24T02:57:19;13.30;99.90
10083;DHT22;5080;48.528;8.078;2022-09-24T02:59:46;13.20;99.90
10083;DHT22;5080;48.528;8.078;2022-09-24T03:02:13;13.30;99.90
10083;DHT22;5080;48.528;8.078;2022-09-24T03:04:41;13.30;99.90
10083;DHT22;5080;48.528;8.078;2022-09-24T03:07:08;13.30;99.90
10083;DHT22;5080;48.528;8.078;2022-09-24T03:09:35;13.30;99.90
10083;DHT22;5080;48.528;8.078;2022-09-24T03:12:02;13.40;99.90
10083;DHT22;5080;48.528;8.078;2022-09-24T03:14:29;13.40;99.90
10083;DHT22;5080;48.528;8.078;2022-09-24T03:16:56;13.40;99.90
10083;DHT22;5080;48.528;8.078;2022-09-24T03:19:23;13.50;99.90
10083;DHT22;5080;48.528;8.078;2022-09-24T03:21:51;13.50;99.90
10083;DHT22;5080;48.528;8.078;2022-09-24T03:24:18;13.60;99.90
10083;DHT22;5080;48.528;8.078;2022-09-24T03:26:45;13.60;99.90
10083;DHT22;5080;48.528;8.078;2022-09-24T03:29:12;13.60;99.90
10083;DHT22;5080;48.528;8.078;2022-09-24T03:31:38;13.70;99.90
10083;DHT22;5080;48.528;8.078;2022-09-24T03:34:04;13.70;99.90
10083;DHT22;5080;48.528;8.078;2022-09-24T03:36:31;13.70;99.90
10083;DHT22;5080;48.528;8.078;2022-09-24T03:38:59;13.70;99.90
10083;DHT22;5080;48.528;8.078;2022-09-24T03:41:26;13.60;99.90
10083;DHT22;5080;48.528;8.078;2022-09-24T03:43:54;13.70;99.90
10083;DHT22;5080;48.528;8.078;2022-09-24T03:46:20;13.70;99.90
10083;DHT22;5080;48.528;8.078;2022-09-24T03:48:54;13.70;99.90
10083;DHT22;5080;48.528;8.078;2022-09-24T03:51:24;13.60;99.90
10083;DHT22;5080;48.528;8.078;2022-09-24T03:53:51;13.60;99.90
10083;DHT22;5080;48.528;8.078;2022-09-24T03:56:19;13.60;99.90
10083;DHT22;5080;48.528;8.078;2022-09-24T03:58:46;13.60;99.90
10083;DHT22;5080;48.528;8.078;2022-09-24T04:01:14;13.70;99.90
10083;DHT22;5080;48.528;8.078;2022-09-24T04:03:45;13.70;99.90
10083;DHT22;5080;48.528;8.078;2022-09-24T04:06:12;13.60;99.90
10083;DHT22;5080;48.528;8.078;2022-09-24T04:08:39;13.60;99.90
10083;DHT22;5080;48.528;8.078;2022-09-24T04:11:06;13.60;99.90
10083;DHT22;5080;48.528;8.078;2022-09-24T04:13:34;13.60;99.90
10083;DHT22;5080;48.528;8.078;2022-09-24T04:16:02;13.60;99.90
10083;DHT22;5080;48.528;8.078;2022-09-24T04:18:29;13.60;99.90
10083;DHT22;5080;48.528;8.078;2022-09-24T04:20:58;13.60;99.90
10083;DHT22;5080;48.528;8.078;2022-09-24T04:23:25;13.70;99.90
10083;DHT22;5080;48.528;8.078;2022-09-24T04:25:55;13.70;99.90
10083;DHT22;5080;48.528;8.078;2022-09-24T04:28:22;13.70;99.90
10083;DHT22;5080;48.528;8.078;2022-09-24T04:30:51;13.60;99.90
10083;DHT22;5080;48.528;8.078;2022-09-24T04:33:17;13.70;99.90
10083;DHT22;5080;48.528;8.078;2022-09-24T04:35:44;13.70;99.90
10083;DHT22;5080;48.528;8.078;2022-09-24T04:38:11;13.70;99.90
10083;DHT22;5080;48.528;8.078;2022-09-24T04:40:38;13.80;99.90
10083;DHT22;5080;48.528;8.078;2022-09-24T04:43:06;13.80;99.90
10083;DHT22;5080;48.528;8.078;2022-09-24T04:45:32;13.80;99.90
10083;DHT22;5080;48.528;8.078;2022-09-24T04:48:01;13.80;99.90
10083;DHT22;5080;48.528;8.078;2022-09-24T04:50:28;13.80;99.90
10083;DHT22;5080;48.528;8.078;2022-09-24T04:52:57;13.90;99.90
10083;DHT22;5080;48.528;8.078;2022-09-24T04:55:24;13.90;99.90
10083;DHT22;5080;48.528;8.078;2022-09-24T04:57:54;13.90;99.90
10083;DHT22;5080;48.528;8.078;2022-09-24T05:00:22;14.00;99.90
10083;DHT22;5080;48.528;8.078;2022-09-24T05:02:55;14.00;99.90
10083;DHT22;5080;48.528;8.078;2022-09-24T05:05:24;14.00;99.90
10083;DHT22;5080;48.528;8.078;2022-09-24T05:07:52;14.10;99.90
10083;DHT22;5080;48.528;8.078;2022-09-24T05:10:21;14.10;99.90
10083;DHT22;5080;48.528;8.078;2022-09-24T05:12:48;14.20;99.90
10083;DHT22;5080;48.528;8.078;2022-09-24T05:15:15;14.20;99.90
10083;DHT22;5080;48.528;8.078;2022-09-24T05:17:44;14.20;99.90
10083;DHT22;5080;48.528;8.078;2022-09-24T05:20:11;14.20;99.90
10083;DHT22;5080;48.528;8.078;2022-09-24T05:22:41;14.20;99.90
10083;DHT22;5080;48.528;8.078;2022-09-24T05:25:09;14.30;99.90
10083;DHT22;5080;48.528;8.078;2022-09-24T05:27:36;14.40;99.90
10083;DHT22;5080;48.528;8.078;2022-09-24T05:30:03;14.40;99.90
10083;DHT22;5080;48.528;8.078;2022-09-24T05:32:31;14.40;99.90
10083;DHT22;5080;48.528;8.078;2022-09-24T05:34:58;14.50;99.90
10083;DHT22;5080;48.528;8.078;2022-09-24T05:37:25;14.50;99.90
10083;DHT22;5080;48.528;8.078;2022-09-24T05:39:53;14.50;99.90
10083;DHT22;5080;48.528;8.078;2022-09-24T05:42:22;14.60;99.90
10083;DHT22;5080;48.528;8.078;2022-09-24T05:44:49;14.60;99.90
10083;DHT22;5080;48.528;8.078;2022-09-24T05:47:15;14.60;99.90
10083;DHT22;5080;48.528;8.078;2022-09-24T05:49:42;14.70;99.90
10083;DHT22;5080;48.528;8.078;2022-09-24T05:52:09;14.70;99.90
10083;DHT22;5080;48.528;8.078;2022-09-24T05:54:36;14.70;99.90
10083;DHT22;5080;48.528;8.078;2022-09-24T05:57:04;14.80;99.90
10083;DHT22;5080;48.528;8.078;2022-09-24T05:59:31;14.80;99.90
10083;DHT22;5080;48.528;8.078;2022-09-24T06:01:57;14.80;99.90
10083;DHT22;5080;48.528;8.078;2022-09-24T06:04:24;14.80;99.90
10083;DHT22;5080;48.528;8.078;2022-09-24T06:06:52;14.80;99.90
10083;DHT22;5080;48.528;8.078;2022-09-24T06:09:19;14.80;99.90
10083;DHT22;5080;48.528;8.078;2022-09-24T06:11:45;14.80;99.90
10083;DHT22;5080;48.528;8.078;2022-09-24T06:14:16;15.00;99.90
10083;DHT22;5080;48.528;8.078;2022-09-24T06:16:43;15.00;99.90
10083;DHT22;5080;48.528;8.078;2022-09-24T06:19:10;14.90;99.90
10083;DHT22;5080;48.528;8.078;2022-09-24T06:21:36;14.90;99.90
10083;DHT22;5080;48.528;8.078;2022-09-24T06:24:03;14.90;99.90
10083;DHT22;5080;48.528;8.078;2022-09-24T06:26:30;15.00;99.90
10083;DHT22;5080;48.528;8.078;2022-09-24T06:28:58;15.00;99.90
10083;DHT22;5080;48.528;8.078;2022-09-24T06:31:26;15.00;99.90
10083;DHT22;5080;48.528;8.078;2022-09-24T06:33:53;15.20;99.90
10083;DHT22;5080;48.528;8.078;2022-09-24T06:36:20;15.00;99.90
10083;DHT22;5080;48.528;8.078;2022-09-24T06:38:49;15.10;99.90
10083;DHT22;5080;48.528;8.078;2022-09-24T06:41:16;15.10;99.90
10083;DHT22;5080;48.528;8.078;2022-09-24T06:43:43;15.10;99.90
10083;DHT22;5080;48.528;8.078;2022-09-24T06:46:10;15.10;99.90
10083;DHT22;5080;48.528;8.078;2022-09-24T06:48:40;15.20;99.90
10083;DHT22;5080;48.528;8.078;2022-09-24T06:51:07;15.30;99.90
10083;DHT22;5080;48.528;8.078;2022-09-24T06:53:34;15.30;99.90
10083;DHT22;5080;48.528;8.078;2022-09-24T06:56:01;15.30;99.90
10083;DHT22;5080;48.528;8.078;2022-09-24T06:58:28;15.40;99.90
10083;DHT22;5080;48.528;8.078;2022-09-24T07:00:57;15.40;99.90
10083;DHT22;5080;48.528;8.078;2022-09-24T07:03:27;15.50;99.90
10083;DHT22;5080;48.528;8.078;2022-09-24T07:05:59;15.50;99.90
10083;DHT22;5080;48.528;8.078;2022-09-24T07:08:26;15.50;99.90
10083;DHT22;5080;48.528;8.078;2022-09-24T07:10:53;15.60;99.90
10083;DHT22;5080;48.528;8.078;2022-09-24T07:13:20;15.60;99.90
10083;DHT22;5080;48.528;8.078;2022-09-24T07:15:48;15.60;99.90
10083;DHT22;5080;48.528;8.078;2022-09-24T07:18:16;15.50;99.90
10083;DHT22;5080;48.528;8.078;2022-09-24T07:20:43;15.60;99.90
10083;DHT22;5080;48.528;8.078;2022-09-24T07:23:11;15.50;99.90
10083;DHT22;5080;48.528;8.078;2022-09-24T07:25:38;15.40;99.90
10083;DHT22;5080;48.528;8.078;2022-09-24T07:28:07;15.40;99.90
10083;DHT22;5080;48.528;8.078;2022-09-24T07:30:35;15.40;99.90
10083;DHT22;5080;48.528;8.078;2022-09-24T07:33:02;15.50;99.90
10083;DHT22;5080;48.528;8.078;2022-09-24T07:35:30;15.60;99.90
10083;DHT22;5080;48.528;8.078;2022-09-24T07:37:58;15.60;99.90
10083;DHT22;5080;48.528;8.078;2022-09-24T07:40:27;15.60;99.90
10083;DHT22;5080;48.528;8.078;2022-09-24T07:42:54;15.70;99.90
10083;DHT22;5080;48.528;8.078;2022-09-24T07:45:22;15.80;99.90
10083;DHT22;5080;48.528;8.078;2022-09-24T07:47:56;15.60;99.90
10083;DHT22;5080;48.528;8.078;2022-09-24T07:50:23;15.60;99.90
10083;DHT22;5080;48.528;8.078;2022-09-24T07:52:50;15.60;99.90
10083;DHT22;5080;48.528;8.078;2022-09-24T07:55:17;15.60;99.90
10083;DHT22;5080;48.528;8.078;2022-09-24T07:57:49;15.50;99.90
10083;DHT22;5080;48.528;8.078;2022-09-24T08:00:17;15.50;99.90
10083;DHT22;5080;48.528;8.078;2022-09-24T08:02:44;15.50;99.90
10083;DHT22;5080;48.528;8.078;2022-09-24T08:05:12;15.50;99.90
10083;DHT22;5080;48.528;8.078;2022-09-24T08:07:40;15.50;99.90
10083;DHT22;5080;48.528;8.078;2022-09-24T08:10:08;15.50;99.90
10083;DHT22;5080;48.528;8.078;2022-09-24T08:12:34;15.50;99.90
10083;DHT22;5080;48.528;8.078;2022-09-24T08:15:03;15.50;99.90
10083;DHT22;5080;48.528;8.078;2022-09-24T08:17:30;15.50;99.90
10083;DHT22;5080;48.528;8.078;2022-09-24T08:19:57;15.60;99.90
10083;DHT22;5080;48.528;8.078;2022-09-24T08:22:24;15.60;99.90
10083;DHT22;5080;48.528;8.078;2022-09-24T08:24:51;15.60;99.90
10083;DHT22;5080;48.528;8.078;2022-09-24T08:27:19;15.60;99.90
10083;DHT22;5080;48.528;8.078;2022-09-24T08:29:46;15.70;99.90
10083;DHT22;5080;48.528;8.078;2022-09-24T08:32:14;15.70;99.90
10083;DHT22;5080;48.528;8.078;2022-09-24T08:34:42;15.80;99.90
10083;DHT22;5080;48.528;8.078;2022-09-24T08:37:09;15.90;99.90
10083;DHT22;5080;48.528;8.078;2022-09-24T08:39:36;15.90;99.90
10083;DHT22;5080;48.528;8.078;2022-09-24T08:42:05;15.90;99.90
10083;DHT22;5080;48.528;8.078;2022-09-24T08:44:38;15.90;99.90
10083;DHT22;5080;48.528;8.078;2022-09-24T08:47:35;16.00;99.90
10083;DHT22;5080;48.528;8.078;2022-09-24T08:50:11;16.00;99.90
10083;DHT22;5080;48.528;8.078;2022-09-24T08:55:37;16.00;99.90
10083;DHT22;5080;48.528;8.078;2022-09-24T08:58:17;16.00;99.90
10083;DHT22;5080;48.528;8.078;2022-09-24T09:00:52;16.10;99.90
10083;DHT22;5080;48.528;8.078;2022-09-24T09:03:27;16.00;99.90
10083;DHT22;5080;48.528;8.078;2022-09-24T09:06:00;16.00;99.90
10083;DHT22;5080;48.528;8.078;2022-09-24T09:08:35;16.10;99.90
10083;DHT22;5080;48.528;8.078;2022-09-24T09:11:04;16.10;99.90
10083;DHT22;5080;48.528;8.078;2022-09-24T09:13:35;16.10;99.90
10083;DHT22;5080;48.528;8.078;2022-09-24T09:16:08;16.20;99.90
10083;DHT22;5080;48.528;8.078;2022-09-24T09:18:41;16.30;99.90
10083;DHT22;5080;48.528;8.078;2022-09-24T09:21:14;16.30;99.90
10083;DHT22;5080;48.528;8.078;2022-09-24T09:23:45;16.50;99.90
10083;DHT22;5080;48.528;8.078;2022-09-24T09:26:12;16.50;99.90
10083;DHT22;5080;48.528;8.078;2022-09-24T09:28:39;16.60;99.90
10083;DHT22;5080;48.528;8.078;2022-09-24T09:31:18;16.70;99.90
10083;DHT22;5080;48.528;8.078;2022-09-24T09:34:02;16.80;99.90
10083;DHT22;5080;48.528;8.078;2022-09-24T09:36:40;16.90;99.90
10083;DHT22;5080;48.528;8.078;2022-09-24T09:39:20;17.00;99.90
10083;DHT22;5080;48.528;8.078;2022-09-24T09:41:51;17.10;99.90
10083;DHT22;5080;48.528;8.078;2022-09-24T09:44:23;17.20;99.90
10083;DHT22;5080;48.528;8.078;2022-09-24T09:46:54;17.30;99.90
10083;DHT22;5080;48.528;8.078;2022-09-24T09:49:26;17.30;99.90
10083;DHT22;5080;48.528;8.078;2022-09-24T09:51:59;17.30;99.90
10083;DHT22;5080;48.528;8.078;2022-09-24T09:54:35;17.30;99.90
10083;DHT22;5080;48.528;8.078;2022-09-24T09:57:04;17.30;99.90
10083;DHT22;5080;48.528;8.078;2022-09-24T09:59:33;17.20;99.90
10083;DHT22;5080;48.528;8.078;2022-09-24T10:02:00;17.20;99.90
10083;DHT22;5080;48.528;8.078;2022-09-24T10:04:36;17.30;99.90
10083;DHT22;5080;48.528;8.078;2022-09-24T10:07:05;17.30;99.90
10083;DHT22;5080;48.528;8.078;2022-09-24T10:09:33;17.30;99.90
10083;DHT22;5080;48.528;8.078;2022-09-24T10:12:15;17.30;99.90
10083;DHT22;5080;48.528;8.078;2022-09-24T10:14:42;17.40;99.90
10083;DHT22;5080;48.528;8.078;2022-09-24T10:17:12;17.40;99.90
10083;DHT22;5080;48.528;8.078;2022-09-24T10:19:42;17.50;99.90
10083;DHT22;5080;48.528;8.078;2022-09-24T10:22:17;17.60;99.90
10083;DHT22;5080;48.528;8.078;2022-09-24T10:24:45;17.70;99.90
10083;DHT22;5080;48.528;8.078;2022-09-24T10:27:17;17.60;99.90
10083;DHT22;5080;48.528;8.078;2022-09-24T10:29:47;17.60;99.90
10083;DHT22;5080;48.528;8.078;2022-09-24T10:32:35;17.70;99.90
10083;DHT22;5080;48.528;8.078;2022-09-24T10:35:19;17.70;99.90
10083;DHT22;5080;48.528;8.078;2022-09-24T10:37:49;17.70;99.90
10083;DHT22;5080;48.528;8.078;2022-09-24T10:40:20;17.70;99.90
10083;DHT22;5080;48.528;8.078;2022-09-24T10:42:54;17.70;99.90
10083;DHT22;5080;48.528;8.078;2022-09-24T10:45:22;17.90;99.90
10083;DHT22;5080;48.528;8.078;2022-09-24T10:47:55;18.00;99.90
10083;DHT22;5080;48.528;8.078;2022-09-24T10:50:28;18.10;99.90
10083;DHT22;5080;48.528;8.078;2022-09-24T10:52:59;18.10;99.90
10083;DHT22;5080;48.528;8.078;2022-09-24T10:55:38;18.00;99.90
10083;DHT22;5080;48.528;8.078;2022-09-24T10:58:15;18.00;99.90
10083;DHT22;5080;48.528;8.078;2022-09-24T11:00:59;18.00;99.90
10083;DHT22;5080;48.528;8.078;2022-09-24T11:03:44;17.90;99.90
10083;DHT22;5080;48.528;8.078;2022-09-24T11:06:21;17.90;99.90
10083;DHT22;5080;48.528;8.078;2022-09-24T11:08:59;17.90;99.90
10083;DHT22;5080;48.528;8.078;2022-09-24T11:11:34;17.90;99.90
10083;DHT22;5080;48.528;8.078;2022-09-24T11:14:14;17.90;99.90
10083;DHT22;5080;48.528;8.078;2022-09-24T11:17:04;18.00;99.90
10083;DHT22;5080;48.528;8.078;2022-09-24T11:22:48;18.00;99.90
10083;DHT22;5080;48.528;8.078;2022-09-24T11:25:28;18.00;99.90
10083;DHT22;5080;48.528;8.078;2022-09-24T11:28:27;18.10;99.90
10083;DHT22;5080;48.528;8.078;2022-09-24T11:31:03;18.10;99.90
10083;DHT22;5080;48.528;8.078;2022-09-24T11:33:58;18.20;99.90
10083;DHT22;5080;48.528;8.078;2022-09-24T11:36:50;18.20;99.90
10083;DHT22;5080;48.528;8.078;2022-09-24T11:39:33;18.20;99.90
10083;DHT22;5080;48.528;8.078;2022-09-24T11:42:09;18.30;99.90
10083;DHT22;5080;48.528;8.078;2022-09-24T11:44:57;18.30;99.90
10083;DHT22;5080;48.528;8.078;2022-09-24T11:47:40;18.40;99.90
10083;DHT22;5080;48.528;8.078;2022-09-24T11:50:19;18.50;99.90
10083;DHT22;5080;48.528;8.078;2022-09-24T11:52:53;18.50;99.90
10083;DHT22;5080;48.528;8.078;2022-09-24T11:55:24;18.50;99.90
10083;DHT22;5080;48.528;8.078;2022-09-24T11:58:03;18.50;99.90
10083;DHT22;5080;48.528;8.078;2022-09-24T12:00:36;18.50;99.90
10083;DHT22;5080;48.528;8.078;2022-09-24T12:03:10;18.60;99.90
10083;DHT22;5080;48.528;8.078;2022-09-24T12:05:43;18.60;99.90
10083;DHT22;5080;48.528;8.078;2022-09-24T12:08:15;18.60;99.90
10083;DHT22;5080;48.528;8.078;2022-09-24T12:10:48;18.60;99.90
10083;DHT22;5080;48.528;8.078;2022-09-24T12:13:21;18.70;99.90
10083;DHT22;5080;48.528;8.078;2022-09-24T12:15:54;18.70;99.90
10083;DHT22;5080;48.528;8.078;2022-09-24T12:18:24;18.80;99.90
10083;DHT22;5080;48.528;8.078;2022-09-24T12:20:56;18.90;99.90
10083;DHT22;5080;48.528;8.078;2022-09-24T12:23:28;19.00;99.90
10083;DHT22;5080;48.528;8.078;2022-09-24T12:26:01;19.10;99.90
10083;DHT22;5080;48.528;8.078;2022-09-24T12:28:36;19.30;99.90
10083;DHT22;5080;48.528;8.078;2022-09-24T12:31:28;19.60;99.90
10083;DHT22;5080;48.528;8.078;2022-09-24T12:34:18;19.80;99.90
10083;DHT22;5080;48.528;8.078;2022-09-24T12:36:56;20.00;99.90
10083;DHT22;5080;48.528;8.078;2022-09-24T12:39:27;20.10;99.90
10083;DHT22;5080;48.528;8.078;2022-09-24T12:42:00;20.10;99.90
10083;DHT22;5080;48.528;8.078;2022-09-24T12:44:34;20.20;99.90
10083;DHT22;5080;48.528;8.078;2022-09-24T12:47:02;20.40;99.90
10083;DHT22;5080;48.528;8.078;2022-09-24T12:49:32;20.30;99.90
10083;DHT22;5080;48.528;8.078;2022-09-24T12:52:03;20.50;99.90
10083;DHT22;5080;48.528;8.078;2022-09-24T12:54:32;20.70;99.90
10083;DHT22;5080;48.528;8.078;2022-09-24T12:57:11;20.80;99.90
10083;DHT22;5080;48.528;8.078;2022-09-24T12:59:47;20.80;99.90
10083;DHT22;5080;48.528;8.078;2022-09-24T13:02:16;20.70;99.90
10083;DHT22;5080;48.528;8.078;2022-09-24T13:04:46;20.80;99.90
10083;DHT22;5080;48.528;8.078;2022-09-24T13:07:30;21.00;99.90
10083;DHT22;5080;48.528;8.078;2022-09-24T13:09:57;21.10;99.90
10083;DHT22;5080;48.528;8.078;2022-09-24T13:12:38;21.10;99.90
10083;DHT22;5080;48.528;8.078;2022-09-24T13:15:07;21.00;99.90
10083;DHT22;5080;48.528;8.078;2022-09-24T13:17:35;20.80;99.90
10083;DHT22;5080;48.528;8.078;2022-09-24T13:20:05;20.80;99.90
10083;DHT22;5080;48.528;8.078;2022-09-24T13:22:34;20.80;99.90
10083;DHT22;5080;48.528;8.078;2022-09-24T13:25:20;20.80;99.90
10083;DHT22;5080;48.528;8.078;2022-09-24T13:27:58;21.00;99.90
10083;DHT22;5080;48.528;8.078;2022-09-24T13:30:32;20.80;99.90
10083;DHT22;5080;48.528;8.078;2022-09-24T13:33:15;20.80;99.90
10083;DHT22;5080;48.528;8.078;2022-09-24T13:35:46;20.70;99.90
10083;DHT22;5080;48.528;8.078;2022-09-24T13:38:21;20.60;99.90
10083;DHT22;5080;48.528;8.078;2022-09-24T13:40:53;20.40;99.90
10083;DHT22;5080;48.528;8.078;2022-09-24T13:43:36;20.30;99.90
10083;DHT22;5080;48.528;8.078;2022-09-24T13:46:06;20.30;99.90
10083;DHT22;5080;48.528;8.078;2022-09-24T13:48:39;20.20;99.90
10083;DHT22;5080;48.528;8.078;2022-09-24T13:51:11;20.10;99.90
10083;DHT22;5080;48.528;8.078;2022-09-24T13:53:40;20.10;99.90
10083;DHT22;5080;48.528;8.078;2022-09-24T13:56:11;20.10;99.90
10083;DHT22;5080;48.528;8.078;2022-09-24T13:58:41;20.10;99.90
10083;DHT22;5080;48.528;8.078;2022-09-24T14:01:11;20.00;99.90
10083;DHT22;5080;48.528;8.078;2022-09-24T14:03:40;20.00;99.90
10083;DHT22;5080;48.528;8.078;2022-09-24T14:06:10;20.00;99.90
10083;DHT22;5080;48.528;8.078;2022-09-24T14:08:40;20.00;99.90
10083;DHT22;5080;48.528;8.078;2022-09-24T14:11:19;20.00;99.90
10083;DHT22;5080;48.528;8.078;2022-09-24T14:13:47;19.90;99.90
10083;DHT22;5080;48.528;8.078;2022-09-24T14:16:15;19.80;99.90
10083;DHT22;5080;48.528;8.078;2022-09-24T14:18:43;20.00;99.90
10083;DHT22;5080;48.528;8.078;2022-09-24T14:21:14;20.20;99.90
10083;DHT22;5080;48.528;8.078;2022-09-24T14:23:45;20.50;99.90
10083;DHT22;5080;48.528;8.078;2022-09-24T14:26:19;20.70;99.90
10083;DHT22;5080;48.528;8.078;2022-09-24T14:28:50;20.60;99.90
10083;DHT22;5080;48.528;8.078;2022-09-24T14:31:17;20.60;99.90
10083;DHT22;5080;48.528;8.078;2022-09-24T14:33:44;20.60;99.90
10083;DHT22;5080;48.528;8.078;2022-09-24T14:36:13;20.60;99.90
10083;DHT22;5080;48.528;8.078;2022-09-24T14:38:48;20.50;99.90
10083;DHT22;5080;48.528;8.078;2022-09-24T14:41:17;20.50;99.90
10083;DHT22;5080;48.528;8.078;2022-09-24T14:43:48;20.50;99.90
10083;DHT22;5080;48.528;8.078;2022-09-24T14:46:20;20.50;99.90
10083;DHT22;5080;48.528;8.078;2022-09-24T14:48:48;20.50;99.90
10083;DHT22;5080;48.528;8.078;2022-09-24T14:51:22;20.40;99.90
10083;DHT22;5080;48.528;8.078;2022-09-24T14:53:56;20.30;99.90
10083;DHT22;5080;48.528;8.078;2022-09-24T14:56:26;20.30;99.90
10083;DHT22;5080;48.528;8.078;2022-09-24T14:58:54;20.30;99.90
10083;DHT22;5080;48.528;8.078;2022-09-24T15:01:23;20.30;99.90
10083;DHT22;5080;48.528;8.078;2022-09-24T15:03:53;20.20;99.90
10083;DHT22;5080;48.528;8.078;2022-09-24T15:06:21;20.30;99.90
10083;DHT22;5080;48.528;8.078;2022-09-24T15:08:58;20.20;99.90
10083;DHT22;5080;48.528;8.078;2022-09-24T15:11:26;20.30;99.90
10083;DHT22;5080;48.528;8.078;2022-09-24T15:13:59;20.20;99.90
10083;DHT22;5080;48.528;8.078;2022-09-24T15:16:31;20.20;99.90
10083;DHT22;5080;48.528;8.078;2022-09-24T15:19:16;20.20;99.90
10083;DHT22;5080;48.528;8.078;2022-09-24T15:21:44;20.20;99.90
10083;DHT22;5080;48.528;8.078;2022-09-24T15:24:12;20.10;99.90
10083;DHT22;5080;48.528;8.078;2022-09-24T15:26:41;20.10;99.90
10083;DHT22;5080;48.528;8.078;2022-09-24T15:29:16;20.10;99.90
10083;DHT22;5080;48.528;8.078;2022-09-24T15:31:45;20.10;99.90
10083;DHT22;5080;48.528;8.078;2022-09-24T15:34:12;20.10;99.90
10083;DHT22;5080;48.528;8.078;2022-09-24T15:36:39;20.10;99.90
10083;DHT22;5080;48.528;8.078;2022-09-24T15:39:06;20.00;99.90
10083;DHT22;5080;48.528;8.078;2022-09-24T15:41:35;19.90;99.90
10083;DHT22;5080;48.528;8.078;2022-09-24T15:44:02;19.80;99.90
10083;DHT22;5080;48.528;8.078;2022-09-24T15:46:29;19.70;99.90
10083;DHT22;5080;48.528;8.078;2022-09-24T15:48:57;19.70;99.90
10083;DHT22;5080;48.528;8.078;2022-09-24T15:51:24;19.70;99.90
10083;DHT22;5080;48.528;8.078;2022-09-24T15:53:50;19.60;99.90
10083;DHT22;5080;48.528;8.078;2022-09-24T15:56:17;19.50;99.90
10083;DHT22;5080;48.528;8.078;2022-09-24T15:58:44;19.30;99.90
10083;DHT22;5080;48.528;8.078;2022-09-24T16:01:15;19.00;99.90
10083;DHT22;5080;48.528;8.078;2022-09-24T16:03:43;18.70;99.90
10083;DHT22;5080;48.528;8.078;2022-09-24T16:06:12;18.30;99.90
10083;DHT22;5080;48.528;8.078;2022-09-24T16:08:40;18.20;99.90
10083;DHT22;5080;48.528;8.078;2022-09-24T16:11:08;18.00;99.90
10083;DHT22;5080;48.528;8.078;2022-09-24T16:13:34;17.70;99.90
10083;DHT22;5080;48.528;8.078;2022-09-24T16:16:05;17.40;99.90